Time;durP1;ratioP1;P1;durP2;ratioP2;P2;SDS_P1;SDS_P2;PMS_P1;PMS_P2;Temp;Humidity;BMP_temperature;BMP_pressure;BME280_temperature;BME280_humidity;BME280_pressure;Samples;Min_cycle;Max_cycle;Signal;HPM_P1;HPM_P2
2022/01/16 00:04:11;;;;;;;4.00;2.05;;;1.40;99.90;;;;;;5037910;28;20037;-88
2022/01/16 00:06:42;;;;;;;4.43;2.25;;;1.40;99.90;;;;;;5038078;28;20029;-89
2022/01/16 00:09:07;;;;;;;;;;;1.40;99.90;;;;;;5038077;28;20026;-89
2022/01/16 00:11:35;;;;;;;3.30;1.88;;;1.40;99.90;;;;;;5036576;28;19973;-90
2022/01/16 00:14:02;;;;;;;3.80;2.00;;;1.40;99.90;;;;;;5041606;28;20047;-89
2022/01/16 00:16:28;;;;;;;4.90;1.83;;;1.40;99.90;;;;;;5056816;28;20037;-89
2022/01/16 00:18:54;;;;;;;3.75;1.80;;;1.40;99.90;;;;;;5057526;28;20036;-89
2022/01/16 00:21:22;;;;;;;3.70;1.67;;;1.40;99.90;;;;;;5056134;28;20025;-88
2022/01/16 00:23:51;;;;;;;4.80;2.05;;;1.40;99.90;;;;;;5056733;28;20032;-89
2022/01/16 00:26:18;;;;;;;3.15;1.60;;;1.40;99.90;;;;;;5056124;28;20060;-89
2022/01/16 00:28:44;;;;;;;2.58;1.95;;;1.40;99.90;;;;;;5056353;28;20017;-89
2022/01/16 00:31:12;;;;;;;3.65;1.60;;;1.40;99.90;;;;;;5056226;28;20017;-89
2022/01/16 00:33:42;;;;;;;3.63;1.50;;;1.40;99.90;;;;;;5057382;28;20068;-89
2022/01/16 00:36:10;;;;;;;2.25;1.63;;;1.40;99.90;;;;;;5056248;28;20036;-89
2022/01/16 00:38:39;;;;;;;2.95;1.88;;;1.40;99.90;;;;;;5057707;28;20017;-89
2022/01/16 00:41:05;;;;;;;3.85;1.80;;;1.40;99.90;;;;;;5056044;28;20028;-89
2022/01/16 00:43:31;;;;;;;3.25;1.90;;;1.40;99.90;;;;;;5051113;28;20021;-89
2022/01/16 00:45:57;;;;;;;3.65;1.98;;;1.40;99.90;;;;;;5036242;28;20029;-90
2022/01/16 00:48:22;;;;;;;5.15;2.25;;;1.40;99.90;;;;;;5035674;28;20033;-89
2022/01/16 00:50:48;;;;;;;2.33;1.63;;;1.40;99.90;;;;;;5036065;28;20064;-89
2022/01/16 00:53:14;;;;;;;2.55;1.77;;;1.40;99.90;;;;;;5035821;28;20021;-89
2022/01/16 00:55:41;;;;;;;2.60;1.75;;;1.40;99.90;;;;;;5019446;28;20479;-89
2022/01/16 00:58:06;;;;;;;2.63;1.88;;;1.40;99.90;;;;;;5039018;28;20039;-89
2022/01/16 01:00:33;;;;;;;3.20;1.70;;;1.40;99.90;;;;;;5055468;28;20025;-89
2022/01/16 01:03:02;;;;;;;4.82;1.80;;;1.40;99.90;;;;;;5055581;28;20036;-90
2022/01/16 01:05:28;;;;;;;2.22;1.58;;;1.40;99.90;;;;;;5055373;28;20029;-89
2022/01/16 01:07:55;;;;;;;3.92;1.60;;;1.40;99.90;;;;;;5055864;28;20028;-89
2022/01/16 01:10:28;;;;;;;4.03;1.60;;;1.40;99.90;;;;;;5055470;28;20017;-89
2022/01/16 01:12:56;;;;;;;4.80;1.77;;;1.40;99.90;;;;;;5051365;28;20025;-89
2022/01/16 01:15:29;;;;;;;3.67;1.75;;;1.40;99.90;;;;;;5036948;28;20033;-89
2022/01/16 01:17:55;;;;;;;2.40;1.55;;;1.50;99.90;;;;;;5052700;28;20045;-90
2022/01/16 01:20:22;;;;;;;3.42;1.67;;;1.50;99.90;;;;;;5035928;28;20026;-91
2022/01/16 01:22:51;;;;;;;3.22;1.65;;;1.50;99.90;;;;;;5035614;28;20021;-92
2022/01/16 01:25:18;;;;;;;2.65;1.58;;;1.50;99.90;;;;;;5035080;28;20037;-91
2022/01/16 01:27:45;;;;;;;3.92;1.73;;;1.50;99.90;;;;;;5040030;28;20045;-91
2022/01/16 01:30:13;;;;;;;3.60;1.70;;;1.50;99.90;;;;;;5026213;28;20037;-91
2022/01/16 01:32:40;;;;;;;3.80;2.15;;;1.50;99.90;;;;;;5035354;28;20060;-91
2022/01/16 01:35:08;;;;;;;5.13;2.50;;;1.50;99.90;;;;;;5035224;28;20376;-91
2022/01/16 01:37:34;;;;;;;4.43;2.20;;;1.50;99.90;;;;;;5035204;28;20124;-90
2022/01/16 01:40:01;;;;;;;3.60;2.65;;;1.50;99.90;;;;;;5035755;28;20052;-90
2022/01/16 01:42:33;;;;;;;3.42;1.70;;;1.50;99.90;;;;;;5035166;28;20037;-91
2022/01/16 01:53:14;;;;;;;3.63;2.10;;;1.50;99.90;;;;;;5056142;28;20434;-91
2022/01/16 01:55:43;;;;;;;5.20;2.17;;;1.50;99.90;;;;;;5056068;28;20531;-91
2022/01/16 01:58:11;;;;;;;3.22;2.00;;;1.40;99.90;;;;;;5053706;28;20471;-92
2022/01/16 02:00:38;;;;;;;4.68;2.05;;;1.40;99.90;;;;;;5051732;28;20029;-91
2022/01/16 02:05:30;;;;;;;4.10;1.88;;;1.40;99.90;;;;;;5036900;28;20143;-91
2022/01/16 02:07:57;;;;;;;4.07;1.92;;;1.50;99.90;;;;;;5034692;28;20071;-91
2022/01/16 02:10:23;;;;;;;3.05;1.98;;;1.40;99.90;;;;;;5033876;28;20026;-90
2022/01/16 02:12:56;;;;;;;3.67;1.67;;;1.50;99.90;;;;;;5033984;28;20022;-91
2022/01/16 02:32:00;;;;;;;2.10;1.40;;;1.40;99.90;;;;;;4991170;28;20025;-90
2022/01/16 02:37:03;;;;;;;3.42;1.52;;;1.40;99.40;;;;;;5035330;28;20048;-91
2022/01/16 02:39:31;;;;;;;3.45;1.08;;;1.50;99.20;;;;;;5017477;28;20057;-91
2022/01/16 02:41:59;;;;;;;4.88;1.45;;;1.50;99.10;;;;;;5017153;28;20056;-91
2022/01/16 02:46:58;;;;;;;1.60;1.25;;;1.50;99.40;;;;;;5028252;28;20025;-90
2022/01/16 02:49:33;;;;;;;1.65;1.20;;;1.50;99.20;;;;;;4997739;28;20038;-90
2022/01/16 02:52:03;;;;;;;1.70;1.30;;;1.40;99.80;;;;;;4997785;28;20116;-91
2022/01/16 02:54:34;;;;;;;2.70;1.33;;;1.50;99.80;;;;;;4997648;28;20057;-91
2022/01/16 02:57:00;;;;;;;3.50;1.60;;;1.50;99.90;;;;;;4997766;28;20025;-90
2022/01/16 02:59:26;;;;;;;4.60;2.15;;;1.40;99.90;;;;;;4997371;28;20030;-91
2022/01/16 03:01:52;;;;;;;2.00;1.77;;;1.40;99.90;;;;;;5005829;28;20093;-90
2022/01/16 03:04:17;;;;;;;2.80;2.20;;;1.50;99.90;;;;;;5017167;28;20038;-91
2022/01/16 03:06:45;;;;;;;4.88;2.22;;;1.40;99.90;;;;;;4984781;28;20083;-91
2022/01/16 03:09:11;;;;;;;5.75;2.35;;;1.40;99.90;;;;;;5017176;28;20029;-91
2022/01/16 03:11:41;;;;;;;2.80;2.55;;;1.40;99.90;;;;;;5016845;28;20124;-90
2022/01/16 03:14:13;;;;;;;2.97;2.20;;;1.40;99.90;;;;;;5017127;28;20025;-90
2022/01/16 03:16:42;;;;;;;3.15;2.25;;;1.50;99.90;;;;;;5016556;28;20063;-90
2022/01/16 03:21:57;;;;;;;6.45;2.42;;;1.40;99.90;;;;;;5034695;28;20376;-90
2022/01/16 03:24:31;;;;;;;;;;;1.50;99.90;;;;;;5017448;28;20036;-90
2022/01/16 03:27:02;;;;;;;5.78;2.75;;;1.40;99.90;;;;;;5013689;28;20333;-90
2022/01/16 03:29:29;;;;;;;6.22;2.40;;;1.40;99.90;;;;;;5017278;28;20156;-91
2022/01/16 03:31:56;;;;;;;3.30;2.38;;;1.40;99.90;;;;;;5003653;28;20022;-91
2022/01/16 03:34:22;;;;;;;4.68;2.88;;;1.40;99.90;;;;;;5014509;28;20037;-90
2022/01/16 03:36:48;;;;;;;4.28;2.20;;;1.40;99.90;;;;;;4996811;28;20034;-90
2022/01/16 03:39:14;;;;;;;2.70;1.92;;;1.40;99.90;;;;;;4996730;28;20061;-90
2022/01/16 03:41:40;;;;;;;3.42;2.30;;;1.40;99.90;;;;;;4997789;28;20057;-91
2022/01/16 03:44:07;;;;;;;3.85;2.00;;;1.40;99.90;;;;;;4996805;28;20494;-91
2022/01/16 03:46:40;;;;;;;7.18;2.20;;;1.40;99.90;;;;;;5008895;28;20029;-90
2022/01/16 03:49:12;;;;;;;2.17;1.90;;;1.40;99.90;;;;;;5016877;28;20523;-91
2022/01/16 03:51:40;;;;;;;2.58;1.80;;;1.40;99.80;;;;;;5010973;28;20026;-91
2022/01/16 03:54:08;;;;;;;2.88;2.00;;;1.40;99.90;;;;;;5016207;28;20022;-91
2022/01/16 03:56:34;;;;;;;3.28;2.28;;;1.40;99.90;;;;;;5016672;28;20076;-91
2022/01/16 03:59:00;;;;;;;4.13;2.10;;;1.40;99.90;;;;;;5016529;28;20353;-92
2022/01/16 04:01:26;;;;;;;6.15;2.40;;;1.40;99.90;;;;;;5002854;28;20022;-91
2022/01/16 04:03:53;;;;;;;5.22;2.55;;;1.40;99.90;;;;;;4996844;28;20029;-91
2022/01/16 04:06:21;;;;;;;4.13;2.13;;;1.40;99.90;;;;;;4997154;28;20029;-92
2022/01/16 04:08:48;;;;;;;3.40;2.50;;;1.40;99.90;;;;;;4996821;28;20018;-91
2022/01/16 04:11:14;;;;;;;2.97;2.20;;;1.40;99.90;;;;;;4996737;28;20033;-91
2022/01/16 04:13:48;;;;;;;3.95;2.28;;;1.40;99.70;;;;;;4996834;28;20038;-91
2022/01/16 04:16:14;;;;;;;3.90;2.20;;;1.40;99.60;;;;;;5009785;28;20026;-91
2022/01/16 04:18:40;;;;;;;4.32;2.25;;;1.40;99.80;;;;;;5016207;28;20025;-91
2022/01/16 04:21:06;;;;;;;4.47;2.20;;;1.40;99.70;;;;;;5015972;28;20022;-91
2022/01/16 04:23:32;;;;;;;4.32;2.30;;;1.40;99.90;;;;;;5016029;28;20053;-91
2022/01/16 04:25:57;;;;;;;4.35;2.00;;;1.40;99.60;;;;;;5016617;28;20029;-91
2022/01/16 04:28:24;;;;;;;3.30;2.20;;;1.40;99.80;;;;;;5035451;28;20112;-91
2022/01/16 04:30:52;;;;;;;3.97;2.45;;;1.40;99.80;;;;;;5023350;28;20044;-91
2022/01/16 04:33:18;;;;;;;4.00;2.60;;;1.40;99.70;;;;;;5016186;28;20029;-91
2022/01/16 04:35:44;;;;;;;4.28;2.67;;;1.40;99.90;;;;;;5035907;28;20522;-91
2022/01/16 04:38:10;;;;;;;2.88;2.50;;;1.40;99.90;;;;;;5019483;28;20059;-91
2022/01/16 04:43:47;;;;;;;3.65;2.75;;;1.40;99.70;;;;;;5020027;28;20025;-91
2022/01/16 04:46:11;;;;;;;4.40;2.60;;;1.40;99.90;;;;;;5054399;28;20044;-92
2022/01/16 04:48:37;;;;;;;3.90;2.75;;;1.30;99.90;;;;;;5022572;28;20032;-91
2022/01/16 04:51:02;;;;;;;5.72;2.80;;;1.40;99.90;;;;;;5038909;28;20021;-92
2022/01/16 04:53:28;;;;;;;5.47;3.00;;;1.30;99.90;;;;;;5039358;28;20467;-91
2022/01/16 04:55:54;;;;;;;4.68;2.78;;;1.30;99.60;;;;;;5039397;28;20053;-91
2022/01/16 04:58:21;;;;;;;5.05;2.72;;;1.40;99.90;;;;;;5039277;28;20114;-91
2022/01/16 05:00:46;;;;;;;6.20;2.50;;;1.40;99.70;;;;;;5022471;28;20029;-92
2022/01/16 05:03:12;;;;;;;2.60;2.00;;;1.30;99.90;;;;;;5018884;28;20083;-91
2022/01/16 05:05:38;;;;;;;3.85;2.40;;;1.40;99.90;;;;;;5025107;28;20459;-92
2022/01/16 05:08:04;;;;;;;5.28;2.13;;;1.30;99.40;;;;;;5038436;28;20033;-91
2022/01/16 05:10:30;;;;;;;4.60;2.35;;;1.30;99.90;;;;;;5038937;28;20021;-92
2022/01/16 05:13:04;;;;;;;5.13;2.40;;;1.40;99.90;;;;;;5038740;28;20025;-91
2022/01/16 05:18:14;;;;;;;5.53;2.33;;;1.40;99.90;;;;;;5056843;28;20438;-91
2022/01/16 05:20:40;;;;;;;3.38;2.20;;;1.40;99.90;;;;;;5037004;28;20036;-92
2022/01/16 05:23:06;;;;;;;4.68;2.50;;;1.30;99.90;;;;;;5038276;28;20132;-92
2022/01/16 05:25:32;;;;;;;4.28;3.10;;;1.30;99.90;;;;;;5038629;28;20052;-91
2022/01/16 05:27:57;;;;;;;3.25;2.53;;;1.30;99.90;;;;;;5052172;28;20106;-91
2022/01/16 05:30:23;;;;;;;3.00;2.45;;;1.30;99.90;;;;;;5055112;28;20494;-91
2022/01/16 05:32:49;;;;;;;3.78;2.65;;;1.30;99.90;;;;;;5054999;28;20025;-91
2022/01/16 05:35:15;;;;;;;5.63;2.90;;;1.30;99.90;;;;;;5036729;28;20032;-91
2022/01/16 05:37:41;;;;;;;6.07;3.42;;;1.30;99.90;;;;;;5036537;28;20075;-91
2022/01/16 05:40:07;;;;;;;7.15;4.10;;;1.30;99.90;;;;;;5036339;28;20026;-91
2022/01/16 05:42:32;;;;;;;7.15;3.88;;;1.30;99.90;;;;;;5034855;28;20030;-91
2022/01/16 05:44:58;;;;;;;5.07;3.08;;;1.30;99.90;;;;;;5034915;28;20491;-91
2022/01/16 05:47:25;;;;;;;4.05;2.63;;;1.30;99.90;;;;;;5034643;28;20079;-91
2022/01/16 05:49:51;;;;;;;3.00;2.50;;;1.30;99.80;;;;;;5034872;28;20025;-91
2022/01/16 05:52:17;;;;;;;4.70;2.75;;;1.30;99.90;;;;;;5034783;28;20460;-91
2022/01/16 05:54:42;;;;;;;5.50;3.15;;;1.30;99.90;;;;;;5051247;28;20434;-91
2022/01/16 05:57:08;;;;;;;4.70;3.50;;;1.30;99.90;;;;;;5054643;28;20059;-91
2022/01/16 05:59:34;;;;;;;6.47;4.57;;;1.30;99.90;;;;;;5054950;28;20391;-91
2022/01/16 06:02:00;;;;;;;6.45;4.22;;;1.40;99.90;;;;;;5054374;28;20027;-92
2022/01/16 06:04:25;;;;;;;6.40;3.83;;;1.30;99.90;;;;;;5054527;28;20426;-92
2022/01/16 06:06:51;;;;;;;4.25;3.08;;;1.30;99.90;;;;;;5054379;28;20055;-92
2022/01/16 06:09:17;;;;;;;4.75;3.08;;;1.30;99.90;;;;;;5052155;28;20025;-91
2022/01/16 06:11:43;;;;;;;4.65;2.70;;;1.30;99.90;;;;;;5051853;28;20021;-92
2022/01/16 06:14:08;;;;;;;5.35;3.08;;;1.40;99.90;;;;;;5032699;28;20025;-91
2022/01/16 06:16:35;;;;;;;3.65;2.83;;;1.30;99.90;;;;;;5033797;28;20029;-92
2022/01/16 06:19:01;;;;;;;3.50;2.60;;;1.40;99.90;;;;;;5050042;28;20022;-91
2022/01/16 06:21:26;;;;;;;3.70;2.60;;;1.40;99.90;;;;;;5033205;28;20013;-91
2022/01/16 06:23:52;;;;;;;6.93;2.55;;;1.40;99.90;;;;;;5033174;28;20415;-92
2022/01/16 06:26:18;;;;;;;4.57;2.80;;;1.30;99.90;;;;;;5045411;28;20057;-92
2022/01/16 06:28:44;;;;;;;5.55;3.13;;;1.40;99.90;;;;;;4999982;28;20041;-91
2022/01/16 06:31:09;;;;;;;3.47;2.60;;;1.30;99.90;;;;;;5016459;28;20505;-91
2022/01/16 06:33:35;;;;;;;6.32;3.67;;;1.40;99.90;;;;;;5016468;28;20113;-91
2022/01/16 06:36:02;;;;;;;7.15;3.88;;;1.40;99.90;;;;;;5016668;28;20468;-91
2022/01/16 06:38:28;;;;;;;8.90;3.05;;;1.30;99.90;;;;;;4996998;28;20037;-91
2022/01/16 06:40:54;;;;;;;6.10;3.60;;;1.40;99.90;;;;;;5013935;28;20103;-89
2022/01/16 06:43:19;;;;;;;13.73;7.55;;;1.40;99.90;;;;;;5016482;28;20479;-89
2022/01/16 06:45:45;;;;;;;10.68;5.07;;;1.40;99.90;;;;;;5016218;28;20033;-91
2022/01/16 06:48:11;;;;;;;10.05;5.00;;;1.40;99.90;;;;;;5016677;28;20022;-91
2022/01/16 06:50:36;;;;;;;9.38;4.45;;;1.40;99.90;;;;;;5016700;28;20040;-91
2022/01/16 06:53:02;;;;;;;17.38;7.78;;;1.40;99.90;;;;;;5016368;28;20022;-92
2022/01/16 06:55:28;;;;;;;13.10;6.18;;;1.40;99.90;;;;;;5000188;28;20472;-91
2022/01/16 06:57:54;;;;;;;10.77;5.45;;;1.40;99.90;;;;;;4996273;28;20036;-91
2022/01/16 07:00:19;;;;;;;9.90;5.28;;;1.40;99.70;;;;;;4997359;28;20034;-92
2022/01/16 07:02:45;;;;;;;12.27;6.35;;;1.40;99.90;;;;;;4997238;28;20029;-92
2022/01/16 07:05:11;;;;;;;7.95;4.03;;;1.40;99.20;;;;;;4997431;28;20026;-92
2022/01/16 07:07:36;;;;;;;8.13;3.95;;;1.40;99.90;;;;;;4999211;28;20399;-91
2022/01/16 07:10:03;;;;;;;5.18;3.00;;;1.40;99.70;;;;;;5016672;28;20025;-92
2022/01/16 07:12:29;;;;;;;7.22;3.70;;;1.50;99.50;;;;;;5016786;28;20080;-91
2022/01/16 07:14:55;;;;;;;11.43;5.32;;;1.50;99.80;;;;;;5016574;28;20030;-91
2022/01/16 07:17:20;;;;;;;11.80;5.97;;;1.50;99.70;;;;;;5016569;28;20022;-92
2022/01/16 07:19:47;;;;;;;12.40;4.93;;;1.50;99.60;;;;;;5016467;28;20468;-91
2022/01/16 07:22:13;;;;;;;12.23;5.47;;;1.50;99.50;;;;;;5013709;28;20032;-91
2022/01/16 07:24:39;;;;;;;14.38;5.93;;;1.60;99.80;;;;;;4997220;28;20026;-91
2022/01/16 07:27:05;;;;;;;13.95;5.47;;;1.60;99.80;;;;;;4996703;28;20050;-92
2022/01/16 07:29:31;;;;;;;10.30;4.82;;;1.60;99.70;;;;;;4996482;28;20026;-92
2022/01/16 07:31:57;;;;;;;6.50;3.38;;;1.70;99.60;;;;;;5014842;28;20022;-92
2022/01/16 07:34:22;;;;;;;8.38;3.55;;;1.70;99.50;;;;;;4999875;28;20035;-92
2022/01/16 07:36:48;;;;;;;4.90;2.58;;;1.70;99.10;;;;;;4999589;28;20108;-91
2022/01/16 07:39:14;;;;;;;6.70;3.45;;;1.70;99.30;;;;;;4993560;28;20599;-92
2022/01/16 07:41:40;;;;;;;9.32;4.65;;;1.70;99.10;;;;;;4993785;28;20022;-91
2022/01/16 07:44:05;;;;;;;13.48;4.70;;;1.70;99.40;;;;;;4995712;28;20026;-92
2022/01/16 07:46:31;;;;;;;6.95;3.20;;;1.70;99.60;;;;;;4995497;28;20389;-92
2022/01/16 07:48:57;;;;;;;8.25;3.40;;;1.80;99.60;;;;;;4995684;28;20033;-92
2022/01/16 07:51:25;;;;;;;6.28;3.22;;;1.80;99.80;;;;;;5009167;28;20380;-91
2022/01/16 07:53:52;;;;;;;10.05;3.55;;;1.80;99.70;;;;;;5013661;28;20022;-91
2022/01/16 07:56:18;;;;;;;5.97;3.20;;;1.80;99.40;;;;;;5013306;28;20025;-90
2022/01/16 07:58:44;;;;;;;6.78;3.30;;;1.80;99.50;;;;;;5015821;28;20060;-90
2022/01/16 08:01:11;;;;;;;6.18;2.85;;;1.80;99.40;;;;;;5015717;28;20111;-90
2022/01/16 08:03:37;;;;;;;5.75;3.65;;;1.80;99.70;;;;;;5015623;28;20029;-91
2022/01/16 08:06:02;;;;;;;10.32;3.40;;;1.90;99.90;;;;;;5003893;28;20026;-90
2022/01/16 08:08:28;;;;;;;5.15;2.72;;;1.90;99.90;;;;;;4995462;28;20026;-91
2022/01/16 08:10:54;;;;;;;5.28;3.40;;;1.90;99.90;;;;;;4998534;28;20018;-88
2022/01/16 08:13:19;;;;;;;5.72;2.95;;;1.90;99.90;;;;;;4999648;28;20464;-90
2022/01/16 08:15:45;;;;;;;6.75;2.80;;;1.90;99.90;;;;;;5000080;28;20459;-91
2022/01/16 08:18:11;;;;;;;5.97;3.00;;;1.90;99.90;;;;;;5001522;28;20030;-91
2022/01/16 08:20:36;;;;;;;8.65;3.70;;;1.90;99.90;;;;;;5015623;28;20033;-91
2022/01/16 08:23:03;;;;;;;9.32;4.30;;;1.90;99.90;;;;;;5035578;28;20399;-91
2022/01/16 08:25:28;;;;;;;6.78;3.70;;;2.00;99.90;;;;;;5018877;28;20029;-91
2022/01/16 08:27:54;;;;;;;40.17;17.55;;;1.90;99.90;;;;;;5019312;28;20046;-91
2022/01/16 15:33:16;;;;;;;9.25;5.45;;;0.20;97.70;;;;;;5111136;27;20430;-89
2022/01/16 15:35:46;;;;;;;9.10;4.38;;;0.20;97.90;;;;;;5091343;28;20028;-89
2022/01/16 15:38:12;;;;;;;9.73;5.13;;;0.20;98.00;;;;;;5092394;28;20024;-90
2022/01/16 15:40:38;;;;;;;10.57;5.57;;;0.20;98.50;;;;;;5110762;28;20539;-87
2022/01/16 15:43:06;;;;;;;8.60;5.07;;;0.10;98.50;;;;;;5110696;28;20028;-89
2022/01/16 15:45:32;;;;;;;12.75;5.53;;;0.20;98.50;;;;;;5094024;28;20094;-89
2022/01/16 15:47:58;;;;;;;5.15;3.20;;;0.20;98.40;;;;;;5109303;28;20054;-89
2022/01/16 15:50:25;;;;;;;7.10;3.10;;;0.20;98.20;;;;;;5105307;28;20055;-89
2022/01/16 15:52:52;;;;;;;9.85;4.05;;;0.30;98.50;;;;;;5101235;28;20382;-89
2022/01/16 15:55:19;;;;;;;6.97;4.72;;;0.30;98.40;;;;;;5090293;28;20111;-89
2022/01/16 15:57:50;;;;;;;9.50;3.30;;;0.20;98.70;;;;;;5090273;28;20024;-89
2022/01/16 16:00:24;;;;;;;10.05;4.45;;;0.30;98.50;;;;;;5090000;28;20024;-89
2022/01/16 16:02:51;;;;;;;12.80;6.63;;;0.30;98.40;;;;;;5091316;28;20541;-89
2022/01/16 16:05:21;;;;;;;8.98;4.70;;;0.20;97.90;;;;;;5090456;28;20092;-89
2022/01/16 16:07:48;;;;;;;8.80;4.10;;;0.20;98.70;;;;;;5090213;28;20028;-90
2022/01/16 16:10:16;;;;;;;14.18;8.45;;;0.20;98.70;;;;;;5104208;28;20291;-89
2022/01/16 16:12:47;;;;;;;31.58;19.00;;;0.20;98.90;;;;;;5110259;28;20039;-89
2022/01/16 16:15:14;;;;;;;26.05;15.95;;;0.20;99.20;;;;;;5101488;28;20028;-90
2022/01/16 16:17:40;;;;;;;20.50;12.15;;;0.20;99.30;;;;;;5094064;28;20027;-91
2022/01/16 16:20:06;;;;;;;42.38;23.35;;;0.20;99.50;;;;;;5090085;28;20404;-91
2022/01/16 16:22:32;;;;;;;27.30;14.75;;;0.20;99.80;;;;;;5095815;28;20024;-92
2022/01/16 16:24:57;;;;;;;18.70;11.20;;;0.20;99.80;;;;;;5089666;28;20024;-90
2022/01/16 16:27:23;;;;;;;19.70;9.45;;;0.20;99.90;;;;;;5091393;28;20035;-91
2022/01/16 16:29:51;;;;;;;18.00;9.50;;;0.20;99.90;;;;;;5110274;28;20039;-89
2022/01/16 16:32:18;;;;;;;23.90;13.23;;;0.20;99.90;;;;;;5107963;28;20043;-90
2022/01/16 16:34:45;;;;;;;40.70;17.48;;;0.20;99.90;;;;;;5109268;28;20031;-89
2022/01/16 16:37:12;;;;;;;21.30;10.35;;;0.20;99.90;;;;;;5110913;28;20016;-89
2022/01/16 16:39:39;;;;;;;20.80;11.18;;;0.20;99.40;;;;;;5109488;28;20089;-88
2022/01/16 16:42:07;;;;;;;17.77;9.30;;;0.20;99.10;;;;;;5109876;28;20027;-88
2022/01/16 16:44:33;;;;;;;17.30;8.63;;;0.20;99.30;;;;;;5097838;28;20019;-89
2022/01/16 16:47:05;;;;;;;21.77;11.68;;;0.20;99.60;;;;;;5096213;28;20410;-89
2022/01/16 16:49:32;;;;;;;27.20;15.68;;;0.20;99.70;;;;;;5088051;28;20032;-89
2022/01/16 16:51:58;;;;;;;15.95;8.40;;;0.30;99.60;;;;;;5075695;28;20043;-88
2022/01/16 16:54:24;;;;;;;24.85;9.80;;;0.30;99.60;;;;;;5075956;28;20025;-89
2022/01/16 16:56:50;;;;;;;25.10;9.57;;;0.30;99.70;;;;;;5076625;28;20024;-89
2022/01/16 16:59:16;;;;;;;22.08;10.30;;;0.30;99.60;;;;;;5075507;28;20032;-88
2022/01/16 17:01:42;;;;;;;21.08;10.70;;;0.40;99.70;;;;;;5075394;28;20035;-89
2022/01/16 17:04:14;;;;;;;22.60;10.98;;;0.40;99.60;;;;;;5075164;28;20029;-89
2022/01/16 17:06:41;;;;;;;53.85;23.00;;;0.40;99.60;;;;;;5075331;28;20386;-89
2022/01/16 17:09:07;;;;;;;54.85;22.60;;;0.40;99.80;;;;;;5075480;28;20032;-89
2022/01/16 17:11:34;;;;;;;50.97;21.20;;;0.40;99.90;;;;;;5075911;28;20378;-89
2022/01/16 17:13:59;;;;;;;57.40;26.42;;;0.40;99.90;;;;;;5075187;28;20021;-89
2022/01/16 17:16:25;;;;;;;38.42;16.10;;;0.40;99.90;;;;;;5075258;28;20082;-89
2022/01/16 17:18:54;;;;;;;34.53;15.68;;;0.40;99.90;;;;;;5075035;28;20028;-89
2022/01/16 17:21:20;;;;;;;22.15;10.90;;;0.40;99.90;;;;;;5075156;28;20174;-89
2022/01/16 17:23:46;;;;;;;25.55;9.88;;;0.40;99.90;;;;;;5076383;28;20036;-89
2022/01/16 17:26:13;;;;;;;29.00;11.60;;;0.40;99.40;;;;;;5082322;28;20386;-89
2022/01/16 17:28:39;;;;;;;29.27;10.73;;;0.50;99.80;;;;;;5094957;28;20066;-89
2022/01/16 17:31:05;;;;;;;21.02;11.40;;;0.40;99.60;;;;;;5095214;28;20055;-89
2022/01/16 17:33:31;;;;;;;24.20;10.73;;;0.40;99.50;;;;;;5095604;28;20037;-89
2022/01/16 17:35:57;;;;;;;24.27;10.70;;;0.50;99.40;;;;;;5095200;28;20028;-89
2022/01/16 17:38:23;;;;;;;28.95;12.13;;;0.50;99.60;;;;;;5095040;28;20020;-90
2022/01/16 17:40:49;;;;;;;35.58;14.60;;;0.50;99.80;;;;;;5089514;28;20086;-89
2022/01/16 17:43:15;;;;;;;43.47;19.60;;;0.40;99.90;;;;;;5074766;28;20032;-89
2022/01/16 17:45:45;;;;;;;78.10;30.73;;;0.50;99.90;;;;;;5074580;28;20032;-89
2022/01/16 17:48:10;;;;;;;44.93;21.30;;;0.50;99.90;;;;;;5074870;28;20024;-89
2022/01/16 17:50:36;;;;;;;67.97;28.33;;;0.40;99.90;;;;;;5074771;28;20035;-89
2022/01/16 17:53:03;;;;;;;117.55;47.88;;;0.50;99.90;;;;;;5074831;28;20387;-89
2022/01/16 17:55:28;;;;;;;111.72;44.65;;;0.50;99.90;;;;;;5078854;28;20077;-89
2022/01/16 17:57:54;;;;;;;60.15;26.77;;;0.50;99.90;;;;;;5094843;28;20114;-89
2022/01/16 18:00:20;;;;;;;43.05;19.98;;;0.50;99.90;;;;;;5094689;28;20054;-89
2022/01/16 18:02:46;;;;;;;31.38;16.02;;;0.50;99.90;;;;;;5085894;28;20024;-89
2022/01/16 18:05:13;;;;;;;30.95;14.80;;;0.50;99.90;;;;;;5075281;28;20029;-89
2022/01/16 18:07:40;;;;;;;22.90;12.07;;;0.50;99.90;;;;;;5074539;28;20024;-89
2022/01/16 18:10:09;;;;;;;23.10;10.40;;;0.50;99.90;;;;;;5074180;28;20469;-90
2022/01/16 18:12:35;;;;;;;20.13;10.25;;;0.50;99.90;;;;;;5090807;28;20035;-89
2022/01/16 18:15:01;;;;;;;24.17;11.40;;;0.50;99.90;;;;;;5074309;28;20025;-89
2022/01/16 18:17:27;;;;;;;21.13;10.00;;;0.50;99.90;;;;;;5083500;28;20021;-90
2022/01/16 18:19:53;;;;;;;24.40;11.25;;;0.50;99.80;;;;;;5073937;28;20044;-89
2022/01/16 18:22:19;;;;;;;25.48;11.95;;;0.40;99.90;;;;;;5073979;28;20032;-89
2022/01/16 18:24:46;;;;;;;23.92;12.48;;;0.40;99.60;;;;;;5074170;28;20040;-89
2022/01/16 18:27:11;;;;;;;37.25;15.65;;;0.40;99.90;;;;;;5087181;28;20016;-89
2022/01/16 18:29:39;;;;;;;31.45;14.20;;;0.40;99.80;;;;;;5087407;28;20119;-89
2022/01/16 18:32:05;;;;;;;36.67;12.77;;;0.40;99.80;;;;;;5092761;28;20040;-89
2022/01/16 18:34:31;;;;;;;28.67;11.45;;;0.40;99.80;;;;;;5078611;28;20024;-89
2022/01/16 18:36:58;;;;;;;29.73;13.95;;;0.40;99.90;;;;;;5079189;28;20428;-90
2022/01/16 18:39:25;;;;;;;28.00;12.73;;;0.40;99.70;;;;;;5095098;28;20020;-89
2022/01/16 18:41:55;;;;;;;30.67;13.35;;;0.40;99.90;;;;;;5087729;28;20031;-90
2022/01/16 18:44:20;;;;;;;23.63;9.48;;;0.30;99.90;;;;;;5078307;28;20544;-90
2022/01/16 18:46:51;;;;;;;21.63;8.98;;;0.30;99.70;;;;;;5093865;28;20115;-89
2022/01/16 18:49:18;;;;;;;27.67;12.13;;;0.30;99.40;;;;;;5093725;28;20386;-90
2022/01/16 18:51:44;;;;;;;54.35;21.80;;;0.30;99.50;;;;;;5093607;28;20027;-90
2022/01/16 18:54:10;;;;;;;78.20;29.70;;;0.30;99.70;;;;;;5093788;28;20030;-90
2022/01/16 18:56:38;;;;;;;41.90;17.80;;;0.30;99.90;;;;;;5094223;28;20017;-90
2022/01/16 18:59:05;;;;;;;31.30;14.55;;;0.30;99.80;;;;;;5092134;28;20470;-90
2022/01/16 19:01:31;;;;;;;30.58;13.70;;;0.30;99.90;;;;;;5093747;28;20115;-90
2022/01/16 19:03:57;;;;;;;42.20;19.35;;;0.20;99.90;;;;;;5093810;28;20077;-89
2022/01/16 19:06:22;;;;;;;38.80;17.35;;;0.20;99.90;;;;;;5091747;28;20031;-91
2022/01/16 19:08:49;;;;;;;40.28;18.55;;;0.20;99.90;;;;;;5086123;28;20055;-90
2022/01/16 19:11:15;;;;;;;36.67;17.15;;;0.20;99.90;;;;;;5073443;28;20065;-90
2022/01/16 19:13:41;;;;;;;24.38;11.40;;;0.20;99.90;;;;;;5075364;28;20066;-89
2022/01/16 19:16:08;;;;;;;23.60;10.98;;;0.20;99.90;;;;;;5093628;28;20028;-90
2022/01/16 19:18:34;;;;;;;28.65;12.77;;;0.20;99.90;;;;;;5093788;28;20027;-90
2022/01/16 19:21:00;;;;;;;22.90;8.73;;;0.10;99.90;;;;;;5093445;28;20073;-89
2022/01/16 19:23:26;;;;;;;17.75;9.32;;;0.10;99.90;;;;;;5093485;28;20028;-90
2022/01/16 19:25:52;;;;;;;15.50;7.13;;;0.10;99.90;;;;;;5093433;28;20467;-90
2022/01/16 19:28:18;;;;;;;32.33;13.40;;;0.00;99.90;;;;;;5092820;28;20016;-90
2022/01/16 19:30:43;;;;;;;60.92;21.33;;;0.00;99.90;;;;;;5073389;28;20031;-90
2022/01/16 19:33:09;;;;;;;52.60;18.50;;;0.00;99.90;;;;;;5073016;28;20064;-91
2022/01/16 19:35:36;;;;;;;46.55;18.42;;;0.00;99.90;;;;;;5073112;28;20020;-91
2022/01/16 19:38:02;;;;;;;27.20;11.35;;;-0.10;99.90;;;;;;5073475;28;20115;-90
2022/01/16 19:40:30;;;;;;;21.50;9.82;;;-0.10;99.90;;;;;;5073293;28;20490;-90
2022/01/16 19:45:29;;;;;;;27.98;12.52;;;-0.10;99.90;;;;;;5094357;28;20470;-90
2022/01/16 19:47:55;;;;;;;22.90;11.27;;;-0.10;99.90;;;;;;5093280;28;20031;-90
2022/01/16 19:50:21;;;;;;;22.38;10.98;;;-0.10;99.90;;;;;;5093236;28;20024;-91
2022/01/16 19:52:48;;;;;;;32.75;12.50;;;-0.10;99.90;;;;;;5091416;28;20028;-90
2022/01/16 19:55:14;;;;;;;42.47;14.23;;;-0.10;99.90;;;;;;5093327;28;20030;-90
2022/01/16 19:57:40;;;;;;;34.92;12.60;;;-0.10;99.90;;;;;;5093155;28;20451;-90
2022/01/16 20:00:12;;;;;;;51.25;14.93;;;-0.20;99.90;;;;;;5093360;28;20025;-90
2022/01/16 20:02:39;;;;;;;35.38;12.60;;;-0.10;99.90;;;;;;5091143;28;20024;-90
2022/01/16 20:05:06;;;;;;;32.20;10.52;;;-0.10;99.90;;;;;;5074308;28;21521;-89
2022/01/16 20:07:32;;;;;;;25.67;10.27;;;-0.10;99.90;;;;;;5074907;28;20051;-90
2022/01/16 20:09:58;;;;;;;27.55;10.32;;;0.00;99.90;;;;;;5092601;28;20491;-90
2022/01/16 20:12:25;;;;;;;22.70;9.45;;;-0.10;99.90;;;;;;5092735;28;20469;-90
2022/01/16 20:14:53;;;;;;;20.33;8.85;;;-0.10;99.90;;;;;;5094111;28;20020;-90
2022/01/16 20:17:20;;;;;;;20.90;9.02;;;-0.10;99.90;;;;;;5093926;28;20521;-90
2022/01/16 20:19:46;;;;;;;23.38;9.77;;;-0.10;99.90;;;;;;5097497;28;20020;-90
2022/01/16 20:22:12;;;;;;;22.00;8.15;;;-0.10;99.90;;;;;;5096945;28;20043;-90
2022/01/16 20:24:38;;;;;;;17.67;6.82;;;-0.10;99.90;;;;;;5094945;28;20032;-90
2022/01/16 20:27:04;;;;;;;14.52;5.93;;;-0.10;99.90;;;;;;5096570;28;20082;-90
2022/01/16 20:29:31;;;;;;;13.10;6.03;;;-0.10;99.90;;;;;;5096755;28;20032;-89
2022/01/16 20:31:56;;;;;;;14.48;7.22;;;-0.10;99.90;;;;;;5096166;28;20052;-90
2022/01/16 20:34:22;;;;;;;11.98;6.32;;;-0.10;99.90;;;;;;5097411;28;20024;-90
2022/01/16 20:36:49;;;;;;;11.85;5.68;;;-0.10;99.90;;;;;;5096352;28;20020;-90